This is the latest recevied weather packets stored in our database for station/object OK2BOZ-1. If no packets are shown the sender has not sent any weather packets the latest 10 day(s).
| Time | Temp. | Humidity | Pressure | Rain* | Wind** | Luminosity | Snow |
|---|---|---|---|---|---|---|---|
| 1777440980 | 8.89° C | 46% | 1023.8 hPa | - | - | - | - |
| 1777440666 | 8.89° C | 46% | 1023.8 hPa | - | - | - | - |
| 1777440352 | 8.89° C | 46% | 1023.8 hPa | - | - | - | - |
| 1777440038 | 8.89° C | 46% | 1023.7 hPa | - | - | - | - |
| 1777439724 | 8.33° C | 47% | 1023.6 hPa | - | - | - | - |
| 1777439410 | 8.33° C | 47% | 1023.6 hPa | - | - | - | - |
| 1777439096 | 7.78° C | 47% | 1023.5 hPa | - | - | - | - |
| 1777438782 | 7.22° C | 48% | 1023.5 hPa | - | - | - | - |
| 1777438468 | 7.22° C | 48% | 1023.5 hPa | - | - | - | - |
| 1777438154 | 6.67° C | 49% | 1023.4 hPa | - | - | - | - |
| 1777437840 | 6.67° C | 50% | 1023.4 hPa | - | - | - | - |
| 1777437526 | 6.11° C | 51% | 1023.2 hPa | - | - | - | - |
| 1777437212 | 6.11° C | 51% | 1023.2 hPa | - | - | - | - |
| 1777436898 | 5.56° C | 52% | 1023.2 hPa | - | - | - | - |
| 1777436584 | 5° C | 53% | 1023.2 hPa | - | - | - | - |
| 1777436270 | 4.44° C | 55% | 1023 hPa | - | - | - | - |
| 1777435957 | 3.89° C | 56% | 1023.1 hPa | - | - | - | - |
| 1777435643 | 3.33° C | 59% | 1023 hPa | - | - | - | - |
| 1777362039 | 16.67° C | 36% | 1021.4 hPa | - | - | - | - |
| 1777361725 | 16.67° C | 35% | 1021.3 hPa | - | - | - | - |
| 1777361410 | 16.11° C | 39% | 1021.3 hPa | - | - | - | - |
| 1777361095 | 16.11° C | 39% | 1021.3 hPa | - | - | - | - |
| 1777360780 | 16.11° C | 38% | 1021.3 hPa | - | - | - | - |
| 1777360466 | 15.56° C | 41% | 1021.3 hPa | - | - | - | - |
| 1777360152 | 15° C | 42% | 1021.3 hPa | - | - | - | - |
* Rain since midnight (hover to see other rain measurements)
** Current wind speed in m/s (hover to see current wind gust speed)